sensor_id;sensor_type;location;lat;lon;timestamp;pressure;altitude;pressure_sealevel;temperature;humidity
72438;BME280;60444;43.534;-5.674;2023-03-24T00:01:04;101079.00;;;15.00;100.00
72438;BME280;60444;43.534;-5.674;2023-03-24T00:03:31;101081.13;;;14.95;100.00
72438;BME280;60444;43.534;-5.674;2023-03-24T00:06:02;101085.53;;;14.84;100.00
72438;BME280;60444;43.534;-5.674;2023-03-24T00:08:30;101109.94;;;14.85;100.00
72438;BME280;60444;43.534;-5.674;2023-03-24T00:11:06;101121.66;;;14.72;100.00
72438;BME280;60444;43.534;-5.674;2023-03-24T00:13:33;101120.19;;;14.66;100.00
72438;BME280;60444;43.534;-5.674;2023-03-24T00:16:11;101104.22;;;14.30;100.00
72438;BME280;60444;43.534;-5.674;2023-03-24T00:18:37;101130.50;;;14.31;100.00
72438;BME280;60444;43.534;-5.674;2023-03-24T00:21:04;101152.31;;;14.30;100.00
72438;BME280;60444;43.534;-5.674;2023-03-24T00:23:30;101158.00;;;14.25;100.00
72438;BME280;60444;43.534;-5.674;2023-03-24T00:28:32;101164.69;;;14.20;100.00
72438;BME280;60444;43.534;-5.674;2023-03-24T00:31:02;101161.00;;;14.21;100.00
72438;BME280;60444;43.534;-5.674;2023-03-24T00:33:30;101159.78;;;14.11;100.00
72438;BME280;60444;43.534;-5.674;2023-03-24T00:36:04;101184.47;;;14.08;100.00
72438;BME280;60444;43.534;-5.674;2023-03-24T00:38:31;101185.75;;;14.16;100.00
72438;BME280;60444;43.534;-5.674;2023-03-24T00:40:59;101185.94;;;14.13;100.00
72438;BME280;60444;43.534;-5.674;2023-03-24T00:43:24;101190.47;;;13.97;100.00
72438;BME280;60444;43.534;-5.674;2023-03-24T00:45:57;101198.63;;;13.97;100.00
72438;BME280;60444;43.534;-5.674;2023-03-24T00:48:22;101215.50;;;14.04;100.00
72438;BME280;60444;43.534;-5.674;2023-03-24T00:50:49;101230.94;;;14.03;100.00
72438;BME280;60444;43.534;-5.674;2023-03-24T00:53:16;101248.47;;;13.98;100.00
72438;BME280;60444;43.534;-5.674;2023-03-24T00:55:44;101253.41;;;13.91;100.00
72438;BME280;60444;43.534;-5.674;2023-03-24T00:58:13;101222.69;;;13.74;100.00
72438;BME280;60444;43.534;-5.674;2023-03-24T01:00:50;101238.00;;;13.75;100.00
72438;BME280;60444;43.534;-5.674;2023-03-24T01:03:17;101235.56;;;13.70;100.00
72438;BME280;60444;43.534;-5.674;2023-03-24T01:05:46;101238.34;;;13.69;100.00
72438;BME280;60444;43.534;-5.674;2023-03-24T01:08:15;101234.47;;;13.57;100.00
72438;BME280;60444;43.534;-5.674;2023-03-24T01:10:48;101236.88;;;13.46;100.00
72438;BME280;60444;43.534;-5.674;2023-03-24T01:13:22;101242.50;;;13.43;100.00
72438;BME280;60444;43.534;-5.674;2023-03-24T01:15:48;101267.72;;;13.45;100.00
72438;BME280;60444;43.534;-5.674;2023-03-24T01:18:15;101253.59;;;13.38;100.00
72438;BME280;60444;43.534;-5.674;2023-03-24T01:20:42;101259.91;;;13.39;100.00
72438;BME280;60444;43.534;-5.674;2023-03-24T01:23:11;101269.00;;;13.38;100.00
72438;BME280;60444;43.534;-5.674;2023-03-24T01:25:40;101287.09;;;13.39;100.00
72438;BME280;60444;43.534;-5.674;2023-03-24T01:28:14;101271.72;;;13.38;100.00
72438;BME280;60444;43.534;-5.674;2023-03-24T01:30:41;101295.63;;;13.48;100.00
72438;BME280;60444;43.534;-5.674;2023-03-24T01:33:07;101285.22;;;13.39;100.00
72438;BME280;60444;43.534;-5.674;2023-03-24T01:35:33;101294.84;;;13.46;100.00
72438;BME280;60444;43.534;-5.674;2023-03-24T01:37:59;101296.75;;;13.44;100.00
72438;BME280;60444;43.534;-5.674;2023-03-24T01:40:30;101305.72;;;13.46;100.00
72438;BME280;60444;43.534;-5.674;2023-03-24T01:42:56;101319.84;;;13.53;100.00
72438;BME280;60444;43.534;-5.674;2023-03-24T01:48:25;101308.75;;;13.40;100.00
72438;BME280;60444;43.534;-5.674;2023-03-24T01:51:00;101294.75;;;13.31;100.00
72438;BME280;60444;43.534;-5.674;2023-03-24T01:53:27;101300.69;;;13.39;100.00
72438;BME280;60444;43.534;-5.674;2023-03-24T01:55:54;101307.22;;;13.35;100.00
72438;BME280;60444;43.534;-5.674;2023-03-24T01:58:21;101306.44;;;13.33;100.00
72438;BME280;60444;43.534;-5.674;2023-03-24T02:00:47;101304.59;;;13.33;100.00
72438;BME280;60444;43.534;-5.674;2023-03-24T02:03:16;101305.31;;;13.37;100.00
72438;BME280;60444;43.534;-5.674;2023-03-24T02:05:44;101293.16;;;13.27;100.00
72438;BME280;60444;43.534;-5.674;2023-03-24T02:10:37;101318.72;;;13.40;100.00
72438;BME280;60444;43.534;-5.674;2023-03-24T02:13:03;101303.13;;;13.43;100.00
72438;BME280;60444;43.534;-5.674;2023-03-24T02:15:30;101290.53;;;13.42;100.00
72438;BME280;60444;43.534;-5.674;2023-03-24T02:20:55;101314.91;;;13.44;100.00
72438;BME280;60444;43.534;-5.674;2023-03-24T02:42:44;101270.44;;;13.45;100.00
72438;BME280;60444;43.534;-5.674;2023-03-24T02:53:39;101278.38;;;13.49;100.00
72438;BME280;60444;43.534;-5.674;2023-03-24T02:56:30;101275.38;;;13.54;100.00
72438;BME280;60444;43.534;-5.674;2023-03-24T02:59:02;101289.16;;;13.51;100.00
72438;BME280;60444;43.534;-5.674;2023-03-24T03:01:33;101283.00;;;13.47;100.00
72438;BME280;60444;43.534;-5.674;2023-03-24T03:04:08;101281.31;;;13.45;100.00
72438;BME280;60444;43.534;-5.674;2023-03-24T03:06:38;101282.91;;;13.49;100.00
72438;BME280;60444;43.534;-5.674;2023-03-24T03:09:11;101294.75;;;13.48;100.00
72438;BME280;60444;43.534;-5.674;2023-03-24T03:11:40;101284.75;;;13.48;100.00
72438;BME280;60444;43.534;-5.674;2023-03-24T03:14:17;101289.31;;;13.48;100.00
72438;BME280;60444;43.534;-5.674;2023-03-24T03:16:54;101298.19;;;13.51;100.00
72438;BME280;60444;43.534;-5.674;2023-03-24T03:19:52;101308.97;;;13.53;100.00
72438;BME280;60444;43.534;-5.674;2023-03-24T03:22:24;101307.22;;;13.52;100.00
72438;BME280;60444;43.534;-5.674;2023-03-24T03:24:52;101297.13;;;13.54;100.00
72438;BME280;60444;43.534;-5.674;2023-03-24T03:27:23;101289.56;;;13.43;100.00
72438;BME280;60444;43.534;-5.674;2023-03-24T03:30:06;101298.41;;;13.47;100.00
72438;BME280;60444;43.534;-5.674;2023-03-24T03:32:37;101280.38;;;13.46;100.00
72438;BME280;60444;43.534;-5.674;2023-03-24T03:35:19;101272.78;;;13.35;100.00
72438;BME280;60444;43.534;-5.674;2023-03-24T03:40:51;101277.25;;;13.36;100.00
72438;BME280;60444;43.534;-5.674;2023-03-24T03:43:18;101265.59;;;13.34;100.00
72438;BME280;60444;43.534;-5.674;2023-03-24T03:45:44;101272.53;;;13.40;100.00
72438;BME280;60444;43.534;-5.674;2023-03-24T03:48:10;101258.31;;;13.35;100.00
72438;BME280;60444;43.534;-5.674;2023-03-24T03:50:37;101280.38;;;13.46;100.00
72438;BME280;60444;43.534;-5.674;2023-03-24T03:53:06;101286.75;;;13.45;100.00
72438;BME280;60444;43.534;-5.674;2023-03-24T03:55:32;101273.34;;;13.42;100.00
72438;BME280;60444;43.534;-5.674;2023-03-24T03:58:00;101265.59;;;13.34;100.00
72438;BME280;60444;43.534;-5.674;2023-03-24T04:00:26;101277.88;;;13.41;100.00
72438;BME280;60444;43.534;-5.674;2023-03-24T04:05:59;101297.72;;;13.43;100.00
72438;BME280;60444;43.534;-5.674;2023-03-24T04:22:30;101307.84;;;13.40;100.00
72438;BME280;60444;43.534;-5.674;2023-03-24T04:25:28;101316.09;;;13.38;100.00
72438;BME280;60444;43.534;-5.674;2023-03-24T04:31:25;101313.47;;;13.37;100.00
72438;BME280;60444;43.534;-5.674;2023-03-24T04:34:01;101311.06;;;13.31;100.00
72438;BME280;60444;43.534;-5.674;2023-03-24T04:36:36;101325.44;;;13.33;100.00
72438;BME280;60444;43.534;-5.674;2023-03-24T04:39:13;101320.91;;;13.33;100.00
72438;BME280;60444;43.534;-5.674;2023-03-24T04:41:41;101301.47;;;13.24;100.00
72438;BME280;60444;43.534;-5.674;2023-03-24T04:44:09;101311.53;;;13.22;100.00
72438;BME280;60444;43.534;-5.674;2023-03-24T04:46:36;101306.66;;;13.11;100.00
72438;BME280;60444;43.534;-5.674;2023-03-24T04:49:03;101318.41;;;13.12;100.00
72438;BME280;60444;43.534;-5.674;2023-03-24T04:51:30;101331.81;;;13.15;100.00
72438;BME280;60444;43.534;-5.674;2023-03-24T04:53:56;101319.78;;;13.03;100.00
72438;BME280;60444;43.534;-5.674;2023-03-24T04:58:52;101334.34;;;13.01;100.00
72438;BME280;60444;43.534;-5.674;2023-03-24T05:01:17;101332.72;;;12.97;100.00
72438;BME280;60444;43.534;-5.674;2023-03-24T05:03:46;101339.13;;;12.96;100.00
72438;BME280;60444;43.534;-5.674;2023-03-24T05:06:11;101325.94;;;12.88;100.00
72438;BME280;60444;43.534;-5.674;2023-03-24T05:08:37;101323.59;;;12.81;100.00
72438;BME280;60444;43.534;-5.674;2023-03-24T05:11:03;101346.38;;;12.95;100.00
72438;BME280;60444;43.534;-5.674;2023-03-24T05:13:29;101347.50;;;12.91;100.00
72438;BME280;60444;43.534;-5.674;2023-03-24T05:15:55;101337.72;;;12.87;100.00
72438;BME280;60444;43.534;-5.674;2023-03-24T05:18:21;101354.75;;;12.91;100.00
72438;BME280;60444;43.534;-5.674;2023-03-24T05:20:46;101357.63;;;12.88;100.00
72438;BME280;60444;43.534;-5.674;2023-03-24T05:23:12;101345.03;;;12.87;100.00
72438;BME280;60444;43.534;-5.674;2023-03-24T05:25:38;101355.97;;;12.85;100.00
72438;BME280;60444;43.534;-5.674;2023-03-24T05:28:04;101362.50;;;12.81;100.00
72438;BME280;60444;43.534;-5.674;2023-03-24T05:30:29;101366.31;;;12.77;100.00
72438;BME280;60444;43.534;-5.674;2023-03-24T05:32:55;101341.75;;;12.62;100.00
72438;BME280;60444;43.534;-5.674;2023-03-24T05:35:21;101368.38;;;12.72;100.00
72438;BME280;60444;43.534;-5.674;2023-03-24T05:37:47;101368.81;;;12.63;100.00
72438;BME280;60444;43.534;-5.674;2023-03-24T05:40:12;101389.34;;;12.69;100.00
72438;BME280;60444;43.534;-5.674;2023-03-24T05:42:39;101389.19;;;12.72;100.00
72438;BME280;60444;43.534;-5.674;2023-03-24T05:45:06;101371.22;;;12.69;100.00
72438;BME280;60444;43.534;-5.674;2023-03-24T05:47:31;101392.56;;;12.77;100.00
72438;BME280;60444;43.534;-5.674;2023-03-24T05:49:57;101383.56;;;12.76;100.00
72438;BME280;60444;43.534;-5.674;2023-03-24T05:52:22;101378.72;;;12.64;100.00
72438;BME280;60444;43.534;-5.674;2023-03-24T05:54:48;101386.00;;;12.64;100.00
72438;BME280;60444;43.534;-5.674;2023-03-24T05:57:17;101403.00;;;12.67;100.00
72438;BME280;60444;43.534;-5.674;2023-03-24T05:59:42;101407.72;;;12.64;100.00
72438;BME280;60444;43.534;-5.674;2023-03-24T06:02:08;101409.63;;;12.62;100.00
72438;BME280;60444;43.534;-5.674;2023-03-24T06:04:34;101416.63;;;12.66;100.00
72438;BME280;60444;43.534;-5.674;2023-03-24T06:06:59;101419.66;;;12.60;100.00
72438;BME280;60444;43.534;-5.674;2023-03-24T06:09:25;101417.78;;;12.60;100.00
72438;BME280;60444;43.534;-5.674;2023-03-24T06:11:56;101414.44;;;12.55;100.00
72438;BME280;60444;43.534;-5.674;2023-03-24T06:14:22;101426.16;;;12.56;100.00
72438;BME280;60444;43.534;-5.674;2023-03-24T06:16:47;101424.53;;;12.51;100.00
72438;BME280;60444;43.534;-5.674;2023-03-24T06:19:15;101429.97;;;12.51;100.00
72438;BME280;60444;43.534;-5.674;2023-03-24T06:21:40;101423.22;;;12.41;100.00
72438;BME280;60444;43.534;-5.674;2023-03-24T06:24:06;101434.22;;;12.38;100.00
72438;BME280;60444;43.534;-5.674;2023-03-24T06:26:31;101440.44;;;12.40;100.00
72438;BME280;60444;43.534;-5.674;2023-03-24T06:28:57;101435.44;;;12.31;100.00
72438;BME280;60444;43.534;-5.674;2023-03-24T06:31:23;101431.56;;;12.37;100.00
72438;BME280;60444;43.534;-5.674;2023-03-24T06:33:50;101449.75;;;12.35;100.00
72438;BME280;60444;43.534;-5.674;2023-03-24T06:36:16;101453.50;;;12.32;100.00
72438;BME280;60444;43.534;-5.674;2023-03-24T06:38:42;101449.25;;;12.27;100.00
72438;BME280;60444;43.534;-5.674;2023-03-24T06:41:08;101469.13;;;12.27;100.00
72438;BME280;60444;43.534;-5.674;2023-03-24T06:43:34;101451.47;;;12.17;100.00
72438;BME280;60444;43.534;-5.674;2023-03-24T06:46:03;101464.69;;;12.25;100.00
72438;BME280;60444;43.534;-5.674;2023-03-24T06:48:28;101470.72;;;12.31;100.00
72438;BME280;60444;43.534;-5.674;2023-03-24T06:50:54;101487.94;;;12.30;100.00
72438;BME280;60444;43.534;-5.674;2023-03-24T06:53:21;101477.66;;;12.18;100.00
72438;BME280;60444;43.534;-5.674;2023-03-24T06:55:47;101491.81;;;12.25;100.00
72438;BME280;60444;43.534;-5.674;2023-03-24T06:58:14;101497.31;;;12.23;100.00
72438;BME280;60444;43.534;-5.674;2023-03-24T07:00:40;101497.44;;;12.20;100.00
72438;BME280;60444;43.534;-5.674;2023-03-24T07:03:06;101495.19;;;12.10;100.00
72438;BME280;60444;43.534;-5.674;2023-03-24T07:05:40;101516.31;;;12.23;100.00
72438;BME280;60444;43.534;-5.674;2023-03-24T07:08:09;101519.13;;;12.20;100.00
72438;BME280;60444;43.534;-5.674;2023-03-24T07:10:39;101506.75;;;12.15;100.00
72438;BME280;60444;43.534;-5.674;2023-03-24T07:13:06;101521.06;;;12.18;100.00
72438;BME280;60444;43.534;-5.674;2023-03-24T07:15:32;101516.41;;;12.20;100.00
72438;BME280;60444;43.534;-5.674;2023-03-24T07:17:58;101528.97;;;12.23;100.00
72438;BME280;60444;43.534;-5.674;2023-03-24T07:20:23;101534.13;;;12.29;100.00
72438;BME280;60444;43.534;-5.674;2023-03-24T07:22:49;101532.44;;;12.26;100.00
72438;BME280;60444;43.534;-5.674;2023-03-24T07:25:14;101536.72;;;12.32;100.00
72438;BME280;60444;43.534;-5.674;2023-03-24T07:27:45;101535.78;;;12.33;100.00
72438;BME280;60444;43.534;-5.674;2023-03-24T07:30:11;101535.56;;;12.37;100.00
72438;BME280;60444;43.534;-5.674;2023-03-24T07:32:37;101555.09;;;12.45;100.00
72438;BME280;60444;43.534;-5.674;2023-03-24T07:35:08;101561.28;;;12.49;100.00
72438;BME280;60444;43.534;-5.674;2023-03-24T07:37:35;101560.16;;;12.53;100.00
72438;BME280;60444;43.534;-5.674;2023-03-24T07:40:02;101564.72;;;12.52;100.00
72438;BME280;60444;43.534;-5.674;2023-03-24T07:42:30;101558.41;;;12.52;100.00
72438;BME280;60444;43.534;-5.674;2023-03-24T07:44:55;101554.53;;;12.58;100.00
72438;BME280;60444;43.534;-5.674;2023-03-24T07:47:24;101561.72;;;12.59;100.00
72438;BME280;60444;43.534;-5.674;2023-03-24T07:49:49;101566.13;;;12.61;100.00
72438;BME280;60444;43.534;-5.674;2023-03-24T07:52:15;101569.75;;;12.62;100.00
72438;BME280;60444;43.534;-5.674;2023-03-24T07:54:40;101575.56;;;12.73;100.00
72438;BME280;60444;43.534;-5.674;2023-03-24T07:57:06;101594.25;;;12.79;100.00
72438;BME280;60444;43.534;-5.674;2023-03-24T07:59:32;101582.91;;;12.71;100.00
72438;BME280;60444;43.534;-5.674;2023-03-24T08:01:58;101535.88;;;12.50;100.00
72438;BME280;60444;43.534;-5.674;2023-03-24T08:04:24;101586.13;;;12.79;100.00
72438;BME280;60444;43.534;-5.674;2023-03-24T08:06:51;101596.41;;;12.91;100.00
72438;BME280;60444;43.534;-5.674;2023-03-24T08:09:17;101583.22;;;12.83;100.00
72438;BME280;60444;43.534;-5.674;2023-03-24T08:11:43;101580.13;;;12.91;100.00
72438;BME280;60444;43.534;-5.674;2023-03-24T08:14:08;101599.50;;;13.02;100.00
72438;BME280;60444;43.534;-5.674;2023-03-24T08:16:34;101602.22;;;13.03;100.00
72438;BME280;60444;43.534;-5.674;2023-03-24T08:18:59;101574.25;;;13.00;100.00
72438;BME280;60444;43.534;-5.674;2023-03-24T08:21:25;101613.25;;;13.19;100.00
72438;BME280;60444;43.534;-5.674;2023-03-24T08:23:51;101606.78;;;13.21;100.00
72438;BME280;60444;43.534;-5.674;2023-03-24T08:26:17;101608.31;;;13.27;100.00
72438;BME280;60444;43.534;-5.674;2023-03-24T08:28:42;101601.13;;;13.26;100.00
72438;BME280;60444;43.534;-5.674;2023-03-24T08:31:08;101606.03;;;13.36;100.00
72438;BME280;60444;43.534;-5.674;2023-03-24T08:33:34;101614.94;;;13.40;100.00
72438;BME280;60444;43.534;-5.674;2023-03-24T08:36:00;101612.88;;;13.45;100.00
72438;BME280;60444;43.534;-5.674;2023-03-24T08:38:26;101615.00;;;13.57;100.00
72438;BME280;60444;43.534;-5.674;2023-03-24T08:41:00;101615.00;;;13.57;100.00
72438;BME280;60444;43.534;-5.674;2023-03-24T08:43:28;101606.69;;;13.60;100.00
72438;BME280;60444;43.534;-5.674;2023-03-24T08:45:59;101614.66;;;13.65;100.00
72438;BME280;60444;43.534;-5.674;2023-03-24T08:48:25;101612.66;;;13.68;100.00
72438;BME280;60444;43.534;-5.674;2023-03-24T08:50:51;101627.38;;;13.81;100.00
72438;BME280;60444;43.534;-5.674;2023-03-24T08:53:17;101627.25;;;13.84;100.00
72438;BME280;60444;43.534;-5.674;2023-03-24T08:55:43;101624.28;;;13.89;100.00
72438;BME280;60444;43.534;-5.674;2023-03-24T08:58:17;101634.72;;;13.98;100.00
72438;BME280;60444;43.534;-5.674;2023-03-24T09:00:43;101634.34;;;14.05;100.00
72438;BME280;60444;43.534;-5.674;2023-03-24T09:03:15;101625.38;;;14.03;100.00
72438;BME280;60444;43.534;-5.674;2023-03-24T09:05:43;101642.84;;;14.16;100.00
72438;BME280;60444;43.534;-5.674;2023-03-24T09:08:10;101648.78;;;14.24;100.00
72438;BME280;60444;43.534;-5.674;2023-03-24T09:10:37;101641.88;;;14.17;100.00
72438;BME280;60444;43.534;-5.674;2023-03-24T09:13:03;101651.31;;;14.29;87.40
72438;BME280;60444;43.534;-5.674;2023-03-24T09:15:29;101652.53;;;14.40;85.89
72438;BME280;60444;43.534;-5.674;2023-03-24T09:17:55;101638.66;;;14.45;82.53
72438;BME280;60444;43.534;-5.674;2023-03-24T09:20:21;101646.91;;;14.61;78.41
72438;BME280;60444;43.534;-5.674;2023-03-24T09:22:47;101655.50;;;14.70;76.30
72438;BME280;60444;43.534;-5.674;2023-03-24T09:25:16;101660.53;;;14.78;83.70
72438;BME280;60444;43.534;-5.674;2023-03-24T09:27:42;101655.91;;;14.80;75.48
72438;BME280;60444;43.534;-5.674;2023-03-24T09:30:09;101664.22;;;14.94;81.93
72438;BME280;60444;43.534;-5.674;2023-03-24T09:32:35;101648.84;;;14.93;86.66
72438;BME280;60444;43.534;-5.674;2023-03-24T09:35:01;101661.25;;;14.98;73.52
72438;BME280;60444;43.534;-5.674;2023-03-24T09:37:31;101665.06;;;15.11;78.28
72438;BME280;60444;43.534;-5.674;2023-03-24T09:39:59;101663.03;;;15.15;67.47
72438;BME280;60444;43.534;-5.674;2023-03-24T09:42:29;101667.94;;;15.25;69.29
72438;BME280;60444;43.534;-5.674;2023-03-24T09:44:57;101660.97;;;15.20;67.50
72438;BME280;60444;43.534;-5.674;2023-03-24T09:47:45;101682.72;;;15.37;68.39
72438;BME280;60444;43.534;-5.674;2023-03-24T09:50:23;101676.97;;;15.43;75.89
72438;BME280;60444;43.534;-5.674;2023-03-24T09:52:53;101682.25;;;15.46;73.40
72438;BME280;60444;43.534;-5.674;2023-03-24T09:55:27;101680.66;;;15.42;91.19
72438;BME280;60444;43.534;-5.674;2023-03-24T09:57:57;101677.09;;;15.40;70.41
72438;BME280;60444;43.534;-5.674;2023-03-24T10:00:30;101689.53;;;15.45;81.46
72438;BME280;60444;43.534;-5.674;2023-03-24T10:02:59;101682.78;;;15.52;71.15
72438;BME280;60444;43.534;-5.674;2023-03-24T10:05:34;101684.03;;;15.47;74.36
72438;BME280;60444;43.534;-5.674;2023-03-24T10:08:41;101689.75;;;15.58;70.89
72438;BME280;60444;43.534;-5.674;2023-03-24T10:16:45;101689.78;;;15.74;82.86
72438;BME280;60444;43.534;-5.674;2023-03-24T10:19:36;101696.91;;;15.76;80.61
72438;BME280;60444;43.534;-5.674;2023-03-24T10:24:38;101697.44;;;15.83;70.21
72438;BME280;60444;43.534;-5.674;2023-03-24T10:27:20;101702.38;;;15.92;76.79
72438;BME280;60444;43.534;-5.674;2023-03-24T10:29:53;101704.03;;;15.94;71.86
72438;BME280;60444;43.534;-5.674;2023-03-24T10:32:24;101714.28;;;16.06;80.80
72438;BME280;60444;43.534;-5.674;2023-03-24T10:34:57;101698.59;;;16.10;70.89
72438;BME280;60444;43.534;-5.674;2023-03-24T10:37:26;101692.06;;;16.12;79.59
72438;BME280;60444;43.534;-5.674;2023-03-24T10:39:53;101693.06;;;16.11;63.46
72438;BME280;60444;43.534;-5.674;2023-03-24T10:42:24;101718.31;;;16.30;67.97
72438;BME280;60444;43.534;-5.674;2023-03-24T10:44:51;101716.22;;;16.35;61.56
72438;BME280;60444;43.534;-5.674;2023-03-24T10:47:24;101724.81;;;16.43;62.37
72438;BME280;60444;43.534;-5.674;2023-03-24T10:50:01;101719.03;;;16.49;57.16
72438;BME280;60444;43.534;-5.674;2023-03-24T10:52:38;101727.84;;;16.54;57.49
72438;BME280;60444;43.534;-5.674;2023-03-24T10:55:05;101723.97;;;16.58;58.30
72438;BME280;60444;43.534;-5.674;2023-03-24T10:57:32;101705.97;;;16.54;59.27
72438;BME280;60444;43.534;-5.674;2023-03-24T11:00:26;101726.16;;;16.68;57.87
72438;BME280;60444;43.534;-5.674;2023-03-24T11:05:26;101722.16;;;16.73;54.88
72438;BME280;60444;43.534;-5.674;2023-03-24T11:07:57;101728.03;;;16.81;64.75
72438;BME280;60444;43.534;-5.674;2023-03-24T11:10:25;101735.97;;;16.86;68.91
72438;BME280;60444;43.534;-5.674;2023-03-24T11:15:30;101737.63;;;16.88;53.09
72438;BME280;60444;43.534;-5.674;2023-03-24T11:17:59;101725.75;;;16.89;52.33
72438;BME280;60444;43.534;-5.674;2023-03-24T11:20:33;101728.38;;;16.91;62.03
72438;BME280;60444;43.534;-5.674;2023-03-24T11:23:12;101739.69;;;16.99;72.97
72438;BME280;60444;43.534;-5.674;2023-03-24T11:25:41;101724.19;;;16.99;72.81
72438;BME280;60444;43.534;-5.674;2023-03-24T11:28:18;101728.31;;;17.06;58.67
72438;BME280;60444;43.534;-5.674;2023-03-24T11:30:49;101722.56;;;17.11;64.00
72438;BME280;60444;43.534;-5.674;2023-03-24T11:33:27;101724.72;;;17.06;72.17
72438;BME280;60444;43.534;-5.674;2023-03-24T11:35:53;101743.28;;;17.15;59.61
72438;BME280;60444;43.534;-5.674;2023-03-24T11:38:31;101732.94;;;17.20;67.01
72438;BME280;60444;43.534;-5.674;2023-03-24T11:41:01;101730.69;;;17.12;59.43
72438;BME280;60444;43.534;-5.674;2023-03-24T11:43:29;101736.84;;;17.30;64.48
72438;BME280;60444;43.534;-5.674;2023-03-24T11:46:00;101735.13;;;17.29;62.06
72438;BME280;60444;43.534;-5.674;2023-03-24T11:48:51;101736.75;;;17.31;59.42
72438;BME280;60444;43.534;-5.674;2023-03-24T11:51:30;101735.69;;;17.34;58.68
72438;BME280;60444;43.534;-5.674;2023-03-24T11:53:58;101744.38;;;17.26;57.66
72438;BME280;60444;43.534;-5.674;2023-03-24T11:59:13;101726.44;;;17.36;58.32
72438;BME280;60444;43.534;-5.674;2023-03-24T12:01:50;101718.91;;;17.40;62.12
72438;BME280;60444;43.534;-5.674;2023-03-24T12:04:32;101720.66;;;17.41;60.50
72438;BME280;60444;43.534;-5.674;2023-03-24T12:10:03;101707.97;;;17.40;60.38
72438;BME280;60444;43.534;-5.674;2023-03-24T12:15:22;101719.75;;;17.56;59.94
72438;BME280;60444;43.534;-5.674;2023-03-24T12:20:51;101716.31;;;17.67;60.32
72438;BME280;60444;43.534;-5.674;2023-03-24T12:23:58;101709.00;;;17.67;66.96
72438;BME280;60444;43.534;-5.674;2023-03-24T12:26:30;101694.63;;;17.64;57.66
72438;BME280;60444;43.534;-5.674;2023-03-24T12:32:12;101712.78;;;17.79;55.67
72438;BME280;60444;43.534;-5.674;2023-03-24T12:43:35;101698.91;;;17.82;58.28
72438;BME280;60444;43.534;-5.674;2023-03-24T12:51:46;101673.59;;;17.64;64.30
72438;BME280;60444;43.534;-5.674;2023-03-24T12:54:40;101677.13;;;17.66;65.58
72438;BME280;60444;43.534;-5.674;2023-03-24T12:57:15;101670.59;;;17.54;66.75
72438;BME280;60444;43.534;-5.674;2023-03-24T12:59:47;101684.16;;;17.56;65.15
72438;BME280;60444;43.534;-5.674;2023-03-24T13:02:28;101698.22;;;17.50;64.68
72438;BME280;60444;43.534;-5.674;2023-03-24T13:04:59;101692.97;;;17.47;67.18
72438;BME280;60444;43.534;-5.674;2023-03-24T13:07:36;101705.81;;;17.45;67.90
72438;BME280;60444;43.534;-5.674;2023-03-24T13:10:16;101708.75;;;17.42;67.72
72438;BME280;60444;43.534;-5.674;2023-03-24T13:13:05;101697.81;;;17.42;68.11
72438;BME280;60444;43.534;-5.674;2023-03-24T13:15:39;101679.63;;;17.41;73.35
72438;BME280;60444;43.534;-5.674;2023-03-24T13:26:22;101698.91;;;17.53;64.19
72438;BME280;60444;43.534;-5.674;2023-03-24T13:32:02;101693.16;;;17.58;69.06
72438;BME280;60444;43.534;-5.674;2023-03-24T13:34:43;101700.97;;;17.64;73.19
72438;BME280;60444;43.534;-5.674;2023-03-24T13:37:19;101698.13;;;17.66;67.20
72438;BME280;60444;43.534;-5.674;2023-03-24T13:39:55;101711.72;;;17.67;68.16
72438;BME280;60444;43.534;-5.674;2023-03-24T13:43:11;101702.53;;;17.68;68.28
72438;BME280;60444;43.534;-5.674;2023-03-24T13:45:38;101713.19;;;17.73;71.05
72438;BME280;60444;43.534;-5.674;2023-03-24T13:48:17;101703.31;;;17.70;69.13
72438;BME280;60444;43.534;-5.674;2023-03-24T13:53:16;101694.28;;;17.82;64.66
72438;BME280;60444;43.534;-5.674;2023-03-24T13:55:49;101694.97;;;17.86;79.91
72438;BME280;60444;43.534;-5.674;2023-03-24T13:58:26;101699.19;;;17.91;67.89
72438;BME280;60444;43.534;-5.674;2023-03-24T14:03:35;101702.19;;;18.01;74.85
72438;BME280;60444;43.534;-5.674;2023-03-24T14:06:04;101693.97;;;18.01;73.26
72438;BME280;60444;43.534;-5.674;2023-03-24T14:11:37;101709.13;;;18.06;63.07
72438;BME280;60444;43.534;-5.674;2023-03-24T14:14:04;101713.78;;;18.18;62.64
72438;BME280;60444;43.534;-5.674;2023-03-24T14:19:21;101721.22;;;18.30;61.78
72438;BME280;60444;43.534;-5.674;2023-03-24T14:22:20;101715.41;;;18.35;63.63
72438;BME280;60444;43.534;-5.674;2023-03-24T14:25:01;101713.75;;;18.32;59.95
72438;BME280;60444;43.534;-5.674;2023-03-24T14:27:34;101724.91;;;18.43;62.71
72438;BME280;60444;43.534;-5.674;2023-03-24T14:30:12;101715.22;;;18.52;59.75
72438;BME280;60444;43.534;-5.674;2023-03-24T14:32:46;101712.38;;;18.53;64.45
72438;BME280;60444;43.534;-5.674;2023-03-24T14:37:53;101716.97;;;18.53;62.02
72438;BME280;60444;43.534;-5.674;2023-03-24T14:40:36;101727.03;;;18.52;62.70
72438;BME280;60444;43.534;-5.674;2023-03-24T14:46:02;101739.25;;;18.61;63.36
72438;BME280;60444;43.534;-5.674;2023-03-24T14:48:34;101733.28;;;18.54;59.49
72438;BME280;60444;43.534;-5.674;2023-03-24T14:51:30;101739.56;;;18.56;56.46
72438;BME280;60444;43.534;-5.674;2023-03-24T14:53:57;101731.06;;;18.47;59.99
72438;BME280;60444;43.534;-5.674;2023-03-24T14:56:26;101748.94;;;18.52;62.24
72438;BME280;60444;43.534;-5.674;2023-03-24T14:58:54;101759.34;;;18.47;64.68
72438;BME280;60444;43.534;-5.674;2023-03-24T15:01:24;101746.66;;;18.46;70.46
72438;BME280;60444;43.534;-5.674;2023-03-24T15:04:01;101769.41;;;18.47;71.52